createdAt,value
2023-05-14T00:01:52.000Z,99203.56
2023-05-14T00:04:19.699Z,99202.66
2023-05-14T00:06:46.512Z,99191.22
2023-05-14T00:09:13.232Z,99201.81
2023-05-14T00:11:39.779Z,99193.84
2023-05-14T00:14:06.246Z,99201.78
2023-05-14T00:16:35.475Z,99196.50
2023-05-14T00:19:02.013Z,99192.06
2023-05-14T00:21:28.531Z,99184.16
2023-05-14T00:23:55.075Z,99183.25
2023-05-14T00:26:21.698Z,99190.31
2023-05-14T00:28:49.120Z,99183.25
2023-05-14T00:31:15.958Z,99182.38
2023-05-14T00:33:54.243Z,99179.69
2023-05-14T00:36:21.873Z,99174.41
2023-05-14T00:38:49.076Z,99175.28
2023-05-14T00:41:15.786Z,99175.28
2023-05-14T00:43:42.278Z,99176.16
2023-05-14T00:46:09.138Z,99170.00
2023-05-14T00:48:35.974Z,99174.41
2023-05-14T00:51:02.605Z,99169.13
2023-05-14T00:53:29.326Z,99166.47
2023-05-14T00:55:56.024Z,99165.56
2023-05-14T00:58:27.131Z,99170.88
2023-05-14T01:00:53.734Z,99172.63
2023-05-14T01:03:23.642Z,99176.16
2023-05-14T01:06:01.116Z,99178.81
2023-05-14T01:08:40.953Z,99174.41
2023-05-14T01:11:16.698Z,99176.19
2023-05-14T01:14:03.347Z,99174.41
2023-05-14T01:16:33.309Z,99176.16
2023-05-14T01:19:04.714Z,99173.53
2023-05-14T01:21:35.456Z,99171.75
2023-05-14T01:24:02.163Z,99172.66
2023-05-14T01:26:31.316Z,99171.78
2023-05-14T01:29:15.213Z,99169.97
2023-05-14T01:31:45.977Z,99181.44
2023-05-14T01:34:14.637Z,99173.53
2023-05-14T01:36:42.851Z,99172.63
2023-05-14T01:39:11.578Z,99167.31
2023-05-14T01:41:39.416Z,99158.50
2023-05-14T01:44:09.448Z,99163.78
2023-05-14T01:46:36.315Z,99161.13
2023-05-14T01:49:03.188Z,99168.22
2023-05-14T01:51:29.847Z,99162.03
2023-05-14T01:53:56.339Z,99161.16
2023-05-14T01:56:23.822Z,99159.41
2023-05-14T01:58:50.334Z,99161.16
2023-05-14T02:01:20.168Z,99154.97
2023-05-14T02:03:46.667Z,99162.91
2023-05-14T02:06:13.182Z,99162.91
2023-05-14T02:08:39.669Z,99163.78
2023-05-14T02:11:06.208Z,99160.22
2023-05-14T02:13:32.664Z,99163.78
2023-05-14T02:15:59.165Z,99156.75
2023-05-14T02:18:28.259Z,99160.25
2023-05-14T02:21:00.916Z,99153.19
2023-05-14T02:23:40.327Z,99151.44
2023-05-14T02:26:09.618Z,99155.84
2023-05-14T02:28:40.236Z,99149.66
2023-05-14T02:31:06.920Z,99143.47
2023-05-14T02:33:33.439Z,99144.38
2023-05-14T02:36:00.147Z,99147.03
2023-05-14T02:38:26.763Z,99144.38
2023-05-14T02:40:53.923Z,99141.72
2023-05-14T02:43:20.425Z,99136.44
2023-05-14T02:45:47.263Z,99138.19
2023-05-14T02:48:13.803Z,99136.41
2023-05-14T02:50:40.300Z,99142.56
2023-05-14T02:53:06.809Z,99144.31
2023-05-14T02:55:33.355Z,99147.78
2023-05-14T02:57:59.804Z,99142.50
2023-05-14T03:00:26.330Z,99141.63
2023-05-14T03:02:53.449Z,99132.81
2023-05-14T03:05:20.680Z,99136.31
2023-05-14T03:07:47.133Z,99130.16
2023-05-14T03:10:13.588Z,99124.88
2023-05-14T03:12:40.120Z,99132.84
2023-05-14T03:15:07.304Z,99132.88
2023-05-14T03:17:33.839Z,99122.25
2023-05-14T03:20:00.670Z,99127.53
2023-05-14T03:22:27.353Z,99131.03
2023-05-14T03:24:53.783Z,99131.00
2023-05-14T03:27:20.789Z,99130.06
2023-05-14T03:29:47.284Z,99125.59
2023-05-14T03:32:13.863Z,99128.25
2023-05-14T03:34:40.591Z,99133.66
2023-05-14T03:37:07.156Z,99131.94
2023-05-14T03:39:33.706Z,99125.75
2023-05-14T03:42:00.272Z,99139.81
2023-05-14T03:44:26.866Z,99136.28
2023-05-14T03:46:53.384Z,99133.66
2023-05-14T03:49:19.832Z,99125.75
2023-05-14T03:51:46.309Z,99129.31
2023-05-14T03:54:12.830Z,99133.75
2023-05-14T03:56:39.308Z,99124.94
2023-05-14T03:59:05.815Z,99124.06
2023-05-14T04:01:32.423Z,99124.06
2023-05-14T04:03:58.954Z,99126.69
2023-05-14T04:06:27.062Z,99124.03
2023-05-14T04:08:53.763Z,99129.34
2023-05-14T04:11:21.384Z,99132.00
2023-05-14T04:13:47.916Z,99124.03
2023-05-14T04:16:14.396Z,99129.34
2023-05-14T04:18:43.762Z,99121.44
2023-05-14T04:21:10.239Z,99125.84
2023-05-14T04:23:36.742Z,99123.16
2023-05-14T04:26:03.596Z,99119.66
2023-05-14T04:28:30.460Z,99117.00
2023-05-14T04:30:56.986Z,99119.66
2023-05-14T04:33:23.510Z,99121.41
2023-05-14T04:35:49.955Z,99127.59
2023-05-14T04:38:16.511Z,99118.78
2023-05-14T04:40:43.022Z,99123.19
2023-05-14T04:43:09.774Z,99118.78
2023-05-14T04:45:36.517Z,99115.22
2023-05-14T04:48:04.888Z,99120.53
2023-05-14T04:50:31.454Z,99122.28
2023-05-14T04:52:57.969Z,99121.38
2023-05-14T04:55:24.442Z,99117.84
2023-05-14T04:57:51.216Z,99116.97
2023-05-14T05:00:18.173Z,99117.84
2023-05-14T05:02:44.853Z,99117.84
2023-05-14T05:05:11.570Z,99116.09
2023-05-14T05:07:38.074Z,99115.16
2023-05-14T05:10:04.899Z,99113.34
2023-05-14T05:12:31.451Z,99115.09
2023-05-14T05:14:58.111Z,99118.59
2023-05-14T05:17:25.183Z,99115.03
2023-05-14T05:19:52.537Z,99109.81
2023-05-14T05:22:20.193Z,99107.16
2023-05-14T05:24:48.036Z,99112.47
2023-05-14T05:27:15.709Z,99113.34
2023-05-14T05:29:46.139Z,99119.50
2023-05-14T05:32:12.624Z,99119.44
2023-05-14T05:34:39.161Z,99112.34
2023-05-14T05:37:06.051Z,99110.59
2023-05-14T05:39:35.131Z,99113.28
2023-05-14T05:42:02.718Z,99115.09
2023-05-14T05:44:29.290Z,99118.59
2023-05-14T05:46:57.294Z,99115.88
2023-05-14T05:49:24.218Z,99118.53
2023-05-14T05:51:50.798Z,99117.59
2023-05-14T05:54:18.509Z,99117.59
2023-05-14T05:56:44.996Z,99122.00
2023-05-14T05:59:11.508Z,99110.50
2023-05-14T06:01:38.632Z,99116.66
2023-05-14T06:04:06.385Z,99117.53
2023-05-14T06:06:33.049Z,99112.19
2023-05-14T06:08:59.602Z,99115.69
2023-05-14T06:11:26.623Z,99115.59
2023-05-14T06:13:53.241Z,99120.84
2023-05-14T06:16:19.783Z,99128.78
2023-05-14T06:18:49.630Z,99121.69
2023-05-14T06:21:16.118Z,99123.47
2023-05-14T06:23:42.598Z,99116.47
2023-05-14T06:26:09.020Z,99118.13
2023-05-14T06:28:35.534Z,99122.56
2023-05-14T06:31:02.013Z,99119.94
2023-05-14T06:33:31.393Z,99121.63
2023-05-14T06:36:03.612Z,99110.81
2023-05-14T06:38:30.237Z,99114.34
2023-05-14T06:40:56.728Z,99107.19
2023-05-14T06:43:23.206Z,99118.66
2023-05-14T06:45:53.147Z,99112.47
2023-05-14T06:48:20.242Z,99111.59
2023-05-14T06:50:48.427Z,99111.59
2023-05-14T06:53:15.353Z,99113.31
2023-05-14T06:55:41.945Z,99104.34
2023-05-14T06:58:09.082Z,99107.81
2023-05-14T07:00:36.590Z,99098.94
2023-05-14T07:03:03.115Z,99099.84
2023-05-14T07:05:29.724Z,99098.72
2023-05-14T07:07:56.400Z,99102.25
2023-05-14T07:10:23.688Z,99100.56
2023-05-14T07:12:50.488Z,99097.72
2023-05-14T07:15:17.086Z,99098.50
2023-05-14T07:17:43.582Z,99096.06
2023-05-14T07:20:10.753Z,99093.41
2023-05-14T07:22:37.201Z,99089.69
2023-05-14T07:25:03.839Z,99091.34
2023-05-14T07:27:30.276Z,99084.16
2023-05-14T07:29:56.789Z,99079.84
2023-05-14T07:32:25.068Z,99082.44
2023-05-14T07:34:51.762Z,99084.22
2023-05-14T07:37:18.832Z,99083.38
2023-05-14T07:39:45.633Z,99082.38
2023-05-14T07:42:21.890Z,99076.97
2023-05-14T07:44:54.705Z,99079.66
2023-05-14T07:47:21.186Z,99077.81
2023-05-14T07:49:47.658Z,99081.28
2023-05-14T07:52:14.127Z,99068.44
2023-05-14T07:54:40.722Z,99070.22
2023-05-14T07:57:07.543Z,99060.28
2023-05-14T07:59:33.992Z,99065.59
2023-05-14T08:02:03.859Z,99067.28
2023-05-14T08:04:30.869Z,99061.75
2023-05-14T08:06:58.202Z,99064.44
2023-05-14T08:09:24.658Z,99056.44
2023-05-14T08:11:51.123Z,99064.91
2023-05-14T08:14:17.636Z,99061.81
2023-05-14T08:16:44.242Z,99060.97
2023-05-14T08:19:12.404Z,99057.94
2023-05-14T08:21:39.053Z,99058.16
2023-05-14T08:24:05.723Z,99058.91
2023-05-14T08:26:32.420Z,99065.81
2023-05-14T08:28:58.871Z,99051.28
2023-05-14T08:31:25.497Z,99057.00
2023-05-14T08:33:51.992Z,99052.31
2023-05-14T08:36:18.544Z,99049.09
2023-05-14T08:38:45.422Z,99048.94
2023-05-14T08:41:15.301Z,99050.09
2023-05-14T08:43:50.871Z,99042.09
2023-05-14T08:46:18.078Z,99042.72
2023-05-14T08:48:51.740Z,99032.75
2023-05-14T08:51:19.157Z,99038.94
2023-05-14T08:53:45.620Z,99028.91
2023-05-14T08:56:13.298Z,99036.13
2023-05-14T08:58:39.930Z,99027.44
2023-05-14T09:01:06.653Z,99026.03
2023-05-14T09:03:33.898Z,99021.69
2023-05-14T09:06:03.456Z,99018.59
2023-05-14T09:08:30.042Z,99023.13
2023-05-14T09:10:56.510Z,99027.91
2023-05-14T09:13:23.042Z,99022.97
2023-05-14T09:15:51.186Z,99019.31
2023-05-14T09:18:17.855Z,99012.09
2023-05-14T09:20:44.472Z,99022.19
2023-05-14T09:23:10.962Z,99015.34
2023-05-14T09:25:37.452Z,99019.84
2023-05-14T09:28:09.210Z,99018.41
2023-05-14T09:30:37.015Z,99022.81
2023-05-14T09:33:04.288Z,99015.41
2023-05-14T09:35:32.403Z,99012.75
2023-05-14T09:37:58.979Z,99009.31
2023-05-14T09:40:25.680Z,99010.38
2023-05-14T09:42:52.324Z,99009.97
2023-05-14T09:45:19.265Z,99010.47
2023-05-14T09:47:46.083Z,98997.91
2023-05-14T09:50:12.800Z,98997.78
2023-05-14T09:52:39.569Z,99000.63
2023-05-14T09:55:07.025Z,98991.81
2023-05-14T09:57:34.472Z,98990.34
2023-05-14T10:00:01.105Z,98988.19
2023-05-14T10:02:37.355Z,98982.19
2023-05-14T10:05:08.034Z,98984.69
2023-05-14T10:07:42.460Z,98992.31
2023-05-14T10:10:13.629Z,98980.69
2023-05-14T10:12:40.710Z,98982.72
2023-05-14T10:15:15.559Z,98983.56
2023-05-14T10:17:46.663Z,98987.81
2023-05-14T10:20:16.714Z,98982.94
2023-05-14T10:22:43.264Z,98979.50
2023-05-14T10:25:11.094Z,98979.22
2023-05-14T10:27:37.975Z,98967.47
2023-05-14T10:30:10.320Z,98970.78
2023-05-14T10:32:37.963Z,98972.78
2023-05-14T10:35:17.334Z,98964.63
2023-05-14T10:37:45.944Z,98958.09
2023-05-14T10:40:13.704Z,98959.69
2023-05-14T10:42:40.922Z,98958.81
2023-05-14T10:45:09.257Z,98961.84
2023-05-14T10:47:40.410Z,98960.00
2023-05-14T10:50:09.047Z,98950.84
2023-05-14T10:52:36.148Z,98942.34
2023-05-14T10:55:08.553Z,98942.44
2023-05-14T10:57:38.587Z,98941.41
2023-05-14T11:00:10.685Z,98937.56
2023-05-14T11:02:43.147Z,98935.56
2023-05-14T11:05:17.531Z,98923.28
2023-05-14T11:07:49.303Z,98923.56
2023-05-14T11:10:20.533Z,98928.19
2023-05-14T11:12:48.825Z,98925.22
2023-05-14T11:15:20.679Z,98912.25
2023-05-14T11:17:47.841Z,98919.75
2023-05-14T11:20:16.667Z,98915.94
2023-05-14T11:22:44.559Z,98916.22
2023-05-14T11:25:14.518Z,98914.19
2023-05-14T11:27:43.855Z,98905.63
2023-05-14T11:30:19.038Z,98908.56
2023-05-14T11:32:47.025Z,98902.94
2023-05-14T11:35:14.616Z,98891.97
2023-05-14T11:37:41.783Z,98892.16
2023-05-14T11:40:18.815Z,98891.06
2023-05-14T11:42:45.714Z,98896.50
2023-05-14T11:45:13.717Z,98898.25
2023-05-14T11:47:41.843Z,98898.94
2023-05-14T11:50:09.652Z,98890.16
2023-05-14T11:52:41.179Z,98883.13
2023-05-14T11:55:12.782Z,98879.41
2023-05-14T11:57:39.595Z,98876.84
2023-05-14T12:00:14.403Z,98883.34
2023-05-14T12:02:41.127Z,98883.41
2023-05-14T12:05:09.056Z,98880.47
2023-05-14T12:07:36.141Z,98876.97
2023-05-14T12:10:03.644Z,98868.00
2023-05-14T12:12:36.045Z,98857.00
2023-05-14T12:15:02.716Z,98867.72
2023-05-14T12:17:29.209Z,98869.19
2023-05-14T12:19:57.268Z,98865.19
2023-05-14T12:22:23.891Z,98868.41
2023-05-14T12:24:58.082Z,98855.91
2023-05-14T12:27:29.544Z,98856.84
2023-05-14T12:30:09.123Z,98855.13
2023-05-14T12:32:42.718Z,98843.81
2023-05-14T12:35:09.713Z,98846.78
2023-05-14T12:37:37.349Z,98845.56
2023-05-14T12:40:09.038Z,98843.81
2023-05-14T12:42:35.834Z,98846.72
2023-05-14T12:45:05.498Z,98834.63
2023-05-14T12:47:32.352Z,98838.81
2023-05-14T12:49:58.943Z,98838.34
2023-05-14T12:52:36.667Z,98828.69
2023-05-14T12:55:05.434Z,98827.53
2023-05-14T12:57:32.235Z,98823.41
2023-05-14T12:59:58.976Z,98820.66
2023-05-14T13:02:25.551Z,98817.97
2023-05-14T13:04:52.083Z,98807.41
2023-05-14T13:07:18.620Z,98807.97
2023-05-14T13:09:45.175Z,98810.84
2023-05-14T13:12:11.642Z,98801.13
2023-05-14T13:14:38.114Z,98805.78
2023-05-14T13:17:05.123Z,98804.78
2023-05-14T13:19:31.766Z,98806.16
2023-05-14T13:21:58.212Z,98790.75
2023-05-14T13:24:25.111Z,98801.72
2023-05-14T13:26:51.602Z,98793.22
2023-05-14T13:29:18.063Z,98787.56
2023-05-14T13:31:44.572Z,98783.94
2023-05-14T13:34:11.045Z,98782.41
2023-05-14T13:36:39.724Z,98788.44
2023-05-14T13:39:07.258Z,98787.56
2023-05-14T13:41:35.720Z,98781.84
2023-05-14T13:44:02.164Z,98771.84
2023-05-14T13:46:28.968Z,98772.53
2023-05-14T13:48:55.486Z,98772.94
2023-05-14T13:51:25.205Z,98766.41
2023-05-14T13:53:51.725Z,98763.94
2023-05-14T13:56:18.694Z,98764.25
2023-05-14T13:58:45.257Z,98767.75
2023-05-14T14:01:11.778Z,98762.16
2023-05-14T14:03:41.003Z,98763.09
2023-05-14T14:06:07.514Z,98759.28
2023-05-14T14:08:33.985Z,98756.97
2023-05-14T14:11:00.575Z,98745.81
2023-05-14T14:13:27.782Z,98747.78
2023-05-14T14:15:54.360Z,98739.28
2023-05-14T14:18:20.931Z,98740.09
2023-05-14T14:20:47.671Z,98738.38
2023-05-14T14:23:14.196Z,98732.53
2023-05-14T14:25:40.726Z,98737.75
2023-05-14T14:28:07.210Z,98724.72
2023-05-14T14:30:34.596Z,98726.56
2023-05-14T14:33:01.561Z,98717.59
2023-05-14T14:35:28.275Z,98726.75
2023-05-14T14:37:55.708Z,98721.75
2023-05-14T14:40:23.788Z,98729.22
2023-05-14T14:42:51.144Z,98733.91
2023-05-14T14:45:18.146Z,98728.75
2023-05-14T14:47:46.331Z,98726.25
2023-05-14T14:50:13.409Z,98736.00
2023-05-14T14:52:40.942Z,98726.31
2023-05-14T14:55:07.741Z,98722.72
2023-05-14T14:57:34.234Z,98728.56
2023-05-14T15:00:02.332Z,98720.25
2023-05-14T15:02:29.451Z,98714.56
2023-05-14T15:04:55.968Z,98727.75
2023-05-14T15:07:22.706Z,98719.25
2023-05-14T15:09:49.140Z,98716.84
2023-05-14T15:12:17.037Z,98723.63
2023-05-14T15:14:43.753Z,98719.47
2023-05-14T15:17:10.412Z,98720.06
2023-05-14T15:19:37.103Z,98717.72
2023-05-14T15:22:04.205Z,98709.84
2023-05-14T15:24:30.855Z,98712.44
2023-05-14T15:26:57.369Z,98713.03
2023-05-14T15:29:23.824Z,98712.91
2023-05-14T15:31:50.410Z,98702.06
2023-05-14T15:34:17.017Z,98710.44
2023-05-14T15:36:43.555Z,98703.00
2023-05-14T15:39:12.898Z,98701.13
2023-05-14T15:41:39.524Z,98697.84
2023-05-14T15:44:06.254Z,98687.53
2023-05-14T15:46:32.877Z,98698.66
2023-05-14T15:48:59.515Z,98692.19
2023-05-14T15:51:26.124Z,98685.94
2023-05-14T15:53:54.274Z,98678.97
2023-05-14T15:56:22.411Z,98674.41
2023-05-14T15:58:50.543Z,98672.53
2023-05-14T16:01:18.691Z,98671.59
2023-05-14T16:03:45.645Z,98671.72
2023-05-14T16:06:12.268Z,98679.72
2023-05-14T16:08:38.831Z,98677.34
2023-05-14T16:11:07.487Z,98672.84
2023-05-14T16:13:34.045Z,98672.06
2023-05-14T16:16:01.259Z,98671.44
2023-05-14T16:18:27.889Z,98665.28
2023-05-14T16:20:54.351Z,98676.00
2023-05-14T16:23:20.994Z,98675.00
2023-05-14T16:25:47.889Z,98675.06
2023-05-14T16:28:14.444Z,98673.41
2023-05-14T16:30:40.940Z,98677.00
2023-05-14T16:33:07.472Z,98666.41
2023-05-14T16:35:34.062Z,98671.91
2023-05-14T16:38:00.617Z,98672.03
2023-05-14T16:40:27.139Z,98661.31
2023-05-14T16:42:53.646Z,98659.44
2023-05-14T16:45:20.159Z,98656.56
2023-05-14T16:47:47.842Z,98647.59
2023-05-14T16:50:14.405Z,98654.88
2023-05-14T16:52:40.925Z,98663.13
2023-05-14T16:55:07.824Z,98654.81
2023-05-14T16:57:34.696Z,98659.75
2023-05-14T17:00:03.493Z,98661.06
2023-05-14T17:02:29.986Z,98656.25
2023-05-14T17:04:56.652Z,98655.81
2023-05-14T17:07:23.147Z,98660.63
2023-05-14T17:09:49.660Z,98658.91
2023-05-14T17:12:16.161Z,98660.78
2023-05-14T17:14:42.622Z,98657.16
2023-05-14T17:17:09.140Z,98656.28
2023-05-14T17:19:39.205Z,98654.31
2023-05-14T17:22:05.904Z,98654.88
2023-05-14T17:24:32.463Z,98656.50
2023-05-14T17:26:58.939Z,98656.34
2023-05-14T17:29:25.703Z,98653.94
2023-05-14T17:31:52.395Z,98654.06
2023-05-14T17:34:18.982Z,98661.59
2023-05-14T17:36:45.870Z,98660.88
2023-05-14T17:39:12.331Z,98664.59
2023-05-14T17:41:39.073Z,98654.09
2023-05-14T17:44:09.800Z,98662.28
2023-05-14T17:46:37.347Z,98660.69
2023-05-14T17:49:03.843Z,98656.50
2023-05-14T17:51:31.108Z,98657.47
2023-05-14T17:53:57.588Z,98668.22
2023-05-14T17:56:24.216Z,98660.63
2023-05-14T17:58:50.726Z,98661.63
2023-05-14T18:01:17.244Z,98664.47
2023-05-14T18:03:43.850Z,98665.34
2023-05-14T18:06:13.234Z,98664.56
2023-05-14T18:08:39.698Z,98664.94
2023-05-14T18:11:06.288Z,98662.41
2023-05-14T18:13:32.748Z,98668.00
2023-05-14T18:16:00.678Z,98664.72
2023-05-14T18:18:27.464Z,98663.06
2023-05-14T18:20:54.202Z,98664.91
2023-05-14T18:23:20.642Z,98663.44
2023-05-14T18:25:48.174Z,98664.28
2023-05-14T18:28:15.559Z,98671.75
2023-05-14T18:30:43.497Z,98671.16
2023-05-14T18:33:10.329Z,98673.84
2023-05-14T18:35:37.219Z,98670.84
2023-05-14T18:38:03.845Z,98675.44
2023-05-14T18:40:30.378Z,98671.91
2023-05-14T18:42:56.889Z,98671.13
2023-05-14T18:45:24.297Z,98673.03
2023-05-14T18:47:51.490Z,98669.41
2023-05-14T18:50:18.068Z,98672.03
2023-05-14T18:52:44.559Z,98674.72
2023-05-14T18:55:11.014Z,98670.72
2023-05-14T18:57:37.655Z,98670.03
2023-05-14T19:00:05.128Z,98669.34
2023-05-14T19:02:31.698Z,98671.56
2023-05-14T19:04:58.261Z,98678.09
2023-05-14T19:07:24.778Z,98675.44
2023-05-14T19:09:54.457Z,98678.91
2023-05-14T19:12:20.989Z,98682.00
2023-05-14T19:14:47.449Z,98678.22
2023-05-14T19:17:13.963Z,98682.06
2023-05-14T19:19:40.720Z,98683.69
2023-05-14T19:22:07.229Z,98682.34
2023-05-14T19:24:33.799Z,98681.84
2023-05-14T19:27:00.678Z,98680.09
2023-05-14T19:29:27.124Z,98683.38
2023-05-14T19:31:53.660Z,98677.16
2023-05-14T19:34:20.419Z,98678.91
2023-05-14T19:36:47.014Z,98673.00
2023-05-14T19:39:13.526Z,98677.34
2023-05-14T19:41:40.074Z,98680.88
2023-05-14T19:44:06.533Z,98680.22
2023-05-14T19:46:33.271Z,98672.22
2023-05-14T19:48:59.851Z,98678.09
2023-05-14T19:51:26.329Z,98680.22
2023-05-14T19:53:52.838Z,98681.78
2023-05-14T19:56:19.454Z,98685.59
2023-05-14T19:58:45.946Z,98680.41
2023-05-14T20:01:12.490Z,98677.47
2023-05-14T20:03:39.204Z,98678.13
2023-05-14T20:06:08.504Z,98676.53
2023-05-14T20:08:35.053Z,98676.22
2023-05-14T20:11:01.892Z,98676.09
2023-05-14T20:13:31.647Z,98679.47
2023-05-14T20:15:58.801Z,98668.56
2023-05-14T20:18:25.596Z,98670.97
2023-05-14T20:20:52.081Z,98666.44
2023-05-14T20:23:18.610Z,98666.41
2023-05-14T20:25:48.298Z,98665.03
2023-05-14T20:28:14.838Z,98679.47
2023-05-14T20:30:41.352Z,98668.97
2023-05-14T20:33:08.263Z,98669.16
2023-05-14T20:35:34.851Z,98659.06
2023-05-14T20:38:02.270Z,98657.97
2023-05-14T20:40:31.518Z,98655.19
2023-05-14T20:42:58.056Z,98653.41
2023-05-14T20:45:24.846Z,98655.25
2023-05-14T20:47:51.463Z,98644.56
2023-05-14T20:50:18.104Z,98648.91
2023-05-14T20:52:47.545Z,98647.16
2023-05-14T20:55:14.179Z,98641.78
2023-05-14T20:57:43.498Z,98634.63
2023-05-14T21:00:11.124Z,98635.53
2023-05-14T21:02:37.932Z,98643.63
2023-05-14T21:05:05.021Z,98630.34
2023-05-14T21:07:31.748Z,98626.72
2023-05-14T21:10:02.302Z,98622.28
2023-05-14T21:12:28.744Z,98624.13
2023-05-14T21:14:55.262Z,98621.53
2023-05-14T21:17:21.743Z,98627.78
2023-05-14T21:19:48.271Z,98620.56
2023-05-14T21:22:14.734Z,98621.50
2023-05-14T21:24:44.525Z,98619.75
2023-05-14T21:27:11.452Z,98618.91
2023-05-14T21:29:38.554Z,98615.41
2023-05-14T21:32:08.483Z,98617.22
2023-05-14T21:34:34.995Z,98613.19
2023-05-14T21:37:01.552Z,98613.44
2023-05-14T21:39:30.817Z,98607.19
2023-05-14T21:41:57.285Z,98606.00
2023-05-14T21:44:23.828Z,98606.91
2023-05-14T21:46:50.398Z,98612.59
2023-05-14T21:49:16.850Z,98618.09
2023-05-14T21:51:44.854Z,98612.91
2023-05-14T21:54:11.303Z,98613.16
2023-05-14T21:56:37.928Z,98604.09
2023-05-14T21:59:04.760Z,98604.03
2023-05-14T22:01:32.557Z,98604.00
2023-05-14T22:04:00.418Z,98597.03
2023-05-14T22:06:27.012Z,98590.06
2023-05-14T22:08:56.467Z,98603.28
2023-05-14T22:11:25.619Z,98601.38
2023-05-14T22:13:52.174Z,98595.44
2023-05-14T22:16:18.775Z,98597.94
2023-05-14T22:18:45.381Z,98591.53
2023-05-14T22:21:11.994Z,98590.34
2023-05-14T22:23:38.470Z,98595.63
2023-05-14T22:26:07.384Z,98592.47
2023-05-14T22:28:39.786Z,98590.59
2023-05-14T22:31:06.306Z,98592.16
2023-05-14T22:33:33.255Z,98584.00
2023-05-14T22:35:59.805Z,98585.63
2023-05-14T22:38:26.264Z,98585.78
2023-05-14T22:40:52.735Z,98585.00
2023-05-14T22:43:19.154Z,98575.13
2023-05-14T22:45:51.554Z,98566.13
2023-05-14T22:48:21.259Z,98569.69
2023-05-14T22:50:47.710Z,98573.28
2023-05-14T22:53:14.252Z,98562.59
2023-05-14T22:55:40.744Z,98556.34
2023-05-14T22:58:07.255Z,98558.97
2023-05-14T23:00:33.974Z,98557.56
2023-05-14T23:03:07.740Z,98550.38
2023-05-14T23:05:34.425Z,98553.84
2023-05-14T23:08:05.802Z,98544.97
2023-05-14T23:10:35.270Z,98542.31
2023-05-14T23:13:02.015Z,98546.59
2023-05-14T23:15:28.543Z,98542.06
2023-05-14T23:17:59.601Z,98542.94
2023-05-14T23:20:26.141Z,98534.91
2023-05-14T23:22:54.042Z,98537.53
2023-05-14T23:25:23.291Z,98534.84
2023-05-14T23:27:50.063Z,98530.47
2023-05-14T23:30:16.683Z,98534.25
2023-05-14T23:32:43.268Z,98523.59
2023-05-14T23:35:10.233Z,98519.06
2023-05-14T23:37:41.651Z,98523.44
2023-05-14T23:40:12.382Z,98517.19
2023-05-14T23:42:38.888Z,98517.31
2023-05-14T23:45:10.303Z,98515.94
2023-05-14T23:47:37.044Z,98512.34
2023-05-14T23:50:03.765Z,98509.66
2023-05-14T23:52:30.252Z,98500.66
2023-05-14T23:54:57.889Z,98502.50
2023-05-14T23:57:24.553Z,98504.25
